Time;durP1;ratioP1;P1;durP2;ratioP2;P2;SDS_P1;SDS_P2;PMS_P1;PMS_P2;Temp;Humidity;BMP_temperature;BMP_pressure;BME280_temperature;BME280_humidity;BME280_pressure;Samples;Min_cycle;Max_cycle;Signal;HPM_P1;HPM_P2
2021/06/15 00:00:41;;;;;;;8.85;5.90;;;;;;;18.95;87.97;98909.98;1870675;76;22120;-60
2021/06/15 00:03:16;;;;;;;7.58;6.00;;;;;;;18.87;88.21;98920.63;1870766;76;22149;-61
2021/06/15 00:05:51;;;;;;;7.30;5.97;;;;;;;18.82;88.42;98908.11;1873951;76;27884;-62
2021/06/15 00:08:26;;;;;;;7.47;5.92;;;;;;;18.82;88.58;98905.49;1889954;76;22589;-60
2021/06/15 00:11:01;;;;;;;8.75;6.03;;;;;;;18.65;88.95;98907.17;1870653;76;22113;-61
2021/06/15 00:13:47;;;;;;;7.47;5.95;;;;;;;18.65;88.95;98907.17;1827762;77;21201;-61
2021/06/15 00:16:21;;;;;;;7.95;5.95;;;;;;;18.65;89.07;98909.79;1870702;76;22117;-62
2021/06/15 00:18:56;;;;;;;10.58;6.25;;;;;;;18.63;89.23;98910.27;1870693;76;22110;-61
2021/06/15 00:21:42;;;;;;;7.33;5.90;;;;;;;18.56;89.23;98912.59;1827735;77;21277;-61
2021/06/15 00:24:17;;;;;;;7.53;5.67;;;;;;;18.58;89.33;98899.05;1835046;77;22267;-63
2021/06/15 00:26:52;;;;;;;7.72;6.03;;;;;;;18.50;89.27;98907.52;1870659;76;22562;-63
2021/06/15 00:29:37;;;;;;;9.13;6.72;;;;;;;18.50;89.27;98907.52;1827895;78;21663;-62
2021/06/15 00:32:15;;;;;;;9.43;6.20;;;;;;;18.54;89.31;98905.23;1870670;76;22137;-60
2021/06/15 00:34:51;;;;;;;6.60;5.12;;;;;;;18.52;89.20;98903.98;1889925;76;22163;-63
2021/06/15 00:37:26;;;;;;;10.82;6.65;;;;;;;18.51;89.25;98899.62;1870704;76;22599;-61
2021/06/15 00:40:01;;;;;;;9.18;5.95;;;;;;;18.51;89.37;98893.09;1870655;76;22152;-62
2021/06/15 00:42:41;;;;;;;7.87;6.03;;;;;;;18.51;89.15;98891.78;1889901;76;22152;-63
2021/06/15 00:45:25;;;;;;;8.20;5.95;;;;;;;18.51;89.26;98893.09;1854719;76;27925;-61
2021/06/15 00:48:34;;;;;;;7.90;5.80;;;;;;;18.49;89.18;98894.88;1827631;78;21161;-62
2021/06/15 00:51:10;;;;;;;12.00;6.70;;;;;;;18.57;88.72;98897.31;1870625;76;22141;-61
2021/06/15 00:53:45;;;;;;;8.75;5.87;;;;;;;18.57;88.63;98892.97;1870552;76;20354;-61
2021/06/15 00:56:19;;;;;;;9.85;6.55;;;;;;;18.57;88.30;98896.90;1870647;76;22149;-60
2021/06/15 00:58:54;;;;;;;8.20;6.47;;;;;;;18.56;88.15;98896.46;1870744;76;22141;-60
2021/06/15 01:01:31;;;;;;;8.90;6.70;;;;;;;18.53;88.40;98895.23;1889946;76;22544;-61
2021/06/15 01:04:08;;;;;;;9.25;6.53;;;;;;;18.44;89.25;98898.92;1854589;76;27937;-61
2021/06/15 01:07:03;;;;;;;10.08;7.05;;;;;;;18.46;89.24;98896.71;1870772;76;22117;-62
2021/06/15 01:10:13;;;;;;;10.48;7.05;;;;;;;18.46;89.62;98892.34;1873849;76;27939;-62
2021/06/15 01:13:15;;;;;;;8.00;6.15;;;;;;;18.36;90.91;98888.20;1889879;76;22577;-60
2021/06/15 01:16:17;;;;;;;9.53;6.70;;;;;;;18.32;91.46;98884.81;1870704;76;22141;-62
2021/06/15 01:19:38;;;;;;;11.95;8.65;;;;;;;18.38;91.47;98886.42;1889914;76;22598;-61
2021/06/15 01:22:40;;;;;;;9.18;7.53;;;;;;;18.36;91.80;98892.98;1889907;76;22167;-61
2021/06/15 01:25:30;;;;;;;9.40;7.08;;;;;;;18.34;92.23;98887.38;1870668;76;22146;-61
2021/06/15 01:28:38;;;;;;;8.48;7.30;;;;;;;18.27;92.40;98885.78;1760873;81;21627;-61
2021/06/15 01:31:28;;;;;;;8.28;7.05;;;;;;;18.32;92.51;98884.81;1870600;76;22141;-61
2021/06/15 01:34:07;;;;;;;9.00;7.20;;;;;;;18.32;92.34;98882.20;1870678;76;22599;-60
2021/06/15 01:37:12;;;;;;;10.32;7.25;;;;;;;18.32;92.20;98879.59;1870682;76;22574;-61
2021/06/15 01:40:06;;;;;;;8.45;7.00;;;;;;;18.33;92.18;98878.69;1889876;76;22114;-62
2021/06/15 01:42:50;;;;;;;9.03;7.45;;;;;;;18.33;92.23;98881.30;1889933;76;22132;-63
2021/06/15 01:45:45;;;;;;;10.32;6.30;;;;;;;18.31;92.27;98884.38;1861120;77;21133;-61
2021/06/15 01:48:37;;;;;;;8.70;7.08;;;;;;;18.38;92.07;98879.44;1870658;76;22148;-61
2021/06/15 01:51:13;;;;;;;9.95;7.20;;;;;;;18.46;91.78;98888.87;1870645;76;22136;-64
2021/06/15 01:54:09;;;;;;;8.00;6.75;;;;;;;18.41;91.59;98891.13;1827798;78;21130;-60
2021/06/15 01:56:42;;;;;;;10.40;7.85;;;;;;;18.46;91.49;98884.95;1870448;76;22566;-59
2021/06/15 01:59:21;;;;;;;9.53;7.65;;;;;;;18.44;91.57;98888.47;1890046;76;22159;-62
2021/06/15 02:01:57;;;;;;;13.30;8.23;;;;;;;18.44;91.60;98886.28;1870816;76;22141;-61
2021/06/15 02:04:34;;;;;;;9.30;7.85;;;;;;;18.42;91.56;98886.33;1870844;76;22120;-61
2021/06/15 02:07:14;;;;;;;9.40;7.08;;;;;;;18.40;91.59;98884.64;1870570;76;22177;-61
2021/06/15 02:09:54;;;;;;;8.58;6.72;;;;;;;18.39;91.49;98887.72;1889939;76;22136;-61
2021/06/15 02:12:54;;;;;;;9.73;7.95;;;;;;;18.35;91.38;98895.19;1789279;80;21295;-61
2021/06/15 02:15:31;;;;;;;9.60;7.28;;;;;;;18.40;91.41;98898.56;1889918;76;22108;-62
2021/06/15 02:18:08;;;;;;;10.45;8.05;;;;;;;18.37;91.39;98886.88;1870770;76;22524;-61
2021/06/15 02:20:43;;;;;;;8.73;7.53;;;;;;;18.36;91.46;98884.29;1854922;76;27904;-62
2021/06/15 02:23:22;;;;;;;8.73;7.20;;;;;;;18.43;91.53;98892.41;1870587;76;22145;-62
2021/06/15 02:26:06;;;;;;;9.08;7.20;;;;;;;18.47;91.78;98891.88;1870867;76;22121;-62
2021/06/15 02:28:42;;;;;;;9.45;7.00;;;;;;;18.49;92.04;98893.56;1870602;76;22542;-67
2021/06/15 02:31:31;;;;;;;9.68;7.83;;;;;;;18.52;92.14;98896.14;1870589;76;22132;-63
2021/06/15 02:34:10;;;;;;;9.40;7.00;;;;;;;18.57;92.30;98890.36;1870659;76;22145;-64
2021/06/15 02:36:46;;;;;;;9.00;8.00;;;;;;;18.64;92.34;98894.98;1889937;76;22139;-65
2021/06/15 02:39:35;;;;;;;9.75;7.92;;;;;;;18.68;92.13;98899.71;1854768;76;27918;-64
2021/06/15 02:42:13;;;;;;;10.18;7.35;;;;;;;18.74;91.91;98903.48;1889973;76;22575;-62
2021/06/15 02:44:51;;;;;;;9.83;7.67;;;;;;;18.77;91.91;98908.21;1870577;76;22546;-62
2021/06/15 02:47:27;;;;;;;10.08;7.83;;;;;;;18.82;92.01;98897.20;1873867;76;27921;-62
2021/06/15 02:50:08;;;;;;;9.63;8.28;;;;;;;18.95;91.64;98906.06;1889944;76;22151;-63
2021/06/15 02:53:06;;;;;;;10.10;8.40;;;;;;;19.01;91.52;98902.01;1873873;76;28382;-61
2021/06/15 02:55:49;;;;;;;9.73;7.87;;;;;;;19.10;91.00;98907.00;1870659;76;22113;-62
2021/06/15 02:58:37;;;;;;;9.68;7.80;;;;;;;19.06;90.57;98912.77;1760100;81;21149;-61
2021/06/15 03:01:11;;;;;;;9.78;7.35;;;;;;;19.11;90.26;98912.66;1870669;76;22121;-61
2021/06/15 03:03:46;;;;;;;11.03;8.60;;;;;;;19.13;90.33;98913.45;1870655;76;22186;-64
2021/06/15 03:06:26;;;;;;;13.35;8.80;;;;;;;19.16;90.24;98912.52;1869754;76;22594;-60
2021/06/15 03:09:03;;;;;;;12.28;8.38;;;;;;;19.19;90.28;98902.86;1870586;76;22160;-63
2021/06/15 03:11:46;;;;;;;11.15;8.40;;;;;;;19.20;90.10;98895.86;1873869;76;28316;-63
2021/06/15 03:14:34;;;;;;;11.68;8.10;;;;;;;19.22;89.87;98907.16;1861450;77;21280;-63
2021/06/15 03:17:11;;;;;;;14.20;8.75;;;;;;;19.32;89.62;98908.64;1889960;76;20212;-63
2021/06/15 03:20:00;;;;;;;10.53;9.15;;;;;;;19.37;89.38;98907.22;1870765;76;22213;-62
2021/06/15 03:22:47;;;;;;;9.45;8.43;;;;;;;19.43;89.09;98908.36;1870566;76;22141;-60
2021/06/15 03:25:33;;;;;;;10.15;8.95;;;;;;;19.42;88.32;98915.81;1889920;76;22585;-61
2021/06/15 03:28:29;;;;;;;10.58;8.80;;;;;;;19.45;88.30;98913.96;1876316;76;22215;-62
2021/06/15 03:31:05;;;;;;;11.35;9.28;;;;;;;19.50;88.35;98919.08;1870774;76;22149;-62
2021/06/15 03:33:42;;;;;;;14.95;10.45;;;;;;;19.48;87.98;98915.19;1870589;76;22106;-64
2021/06/15 03:36:18;;;;;;;12.03;9.38;;;;;;;19.50;89.12;98920.39;1870674;76;22148;-62
2021/06/15 03:38:56;;;;;;;11.08;9.08;;;;;;;19.56;88.60;98916.75;1870624;76;22112;-63
2021/06/15 03:41:44;;;;;;;12.10;8.95;;;;;;;19.51;88.55;98916.44;1760588;81;21315;-61
2021/06/15 03:44:21;;;;;;;10.90;8.88;;;;;;;19.61;88.68;98918.34;1854746;76;28338;-60
2021/06/15 03:46:59;;;;;;;9.75;8.75;;;;;;;19.71;88.34;98918.98;1889875;76;22577;-62
2021/06/15 03:49:35;;;;;;;10.58;8.98;;;;;;;19.79;87.98;98920.09;1870580;76;22165;-62
2021/06/15 03:52:10;;;;;;;11.97;8.95;;;;;;;19.86;87.69;98923.81;1854782;76;27921;-63
2021/06/15 03:54:47;;;;;;;10.18;8.03;;;;;;;19.99;87.35;98921.71;1870690;76;22164;-61
2021/06/15 03:57:41;;;;;;;10.25;8.33;;;;;;;20.00;86.89;98927.37;1827771;77;21125;-61
2021/06/15 04:00:19;;;;;;;10.32;8.38;;;;;;;20.07;86.47;98930.20;1870472;76;22142;-66
2021/06/15 04:02:57;;;;;;;10.53;9.40;;;;;;;20.10;86.18;98932.77;1889880;76;22582;-64
2021/06/15 04:05:35;;;;;;;10.95;8.50;;;;;;;20.12;85.95;98933.59;1870639;76;22148;-64
2021/06/15 04:08:19;;;;;;;10.13;9.03;;;;;;;20.11;85.66;98928.38;1870841;76;22149;-61
2021/06/15 04:10:55;;;;;;;14.70;9.68;;;;;;;20.07;85.61;98930.20;1854746;76;27934;-63
2021/06/15 04:13:31;;;;;;;9.18;8.23;;;;;;;20.11;85.62;98930.54;1870651;76;22145;-62
2021/06/15 04:16:08;;;;;;;13.53;8.95;;;;;;;20.15;85.56;98930.88;1870472;76;22566;-60
2021/06/15 04:18:45;;;;;;;13.65;9.58;;;;;;;20.26;86.19;98937.56;1854775;76;28016;-64
2021/06/15 04:21:36;;;;;;;14.50;9.10;;;;;;;20.26;86.19;98937.56;1760305;80;21161;-62
2021/06/15 04:24:15;;;;;;;12.40;8.50;;;;;;;20.33;85.12;98935.18;1870583;76;22121;-62
2021/06/15 04:26:58;;;;;;;11.03;9.48;;;;;;;20.39;85.13;98934.98;1889916;76;22188;-62
2021/06/15 04:29:32;;;;;;;11.12;9.25;;;;;;;20.46;84.95;98943.08;1870610;76;22570;-61
2021/06/15 04:32:10;;;;;;;12.33;9.85;;;;;;;20.52;84.63;98940.27;1870617;76;22145;-61
2021/06/15 04:34:55;;;;;;;15.00;8.90;;;;;;;20.59;84.66;98940.98;1890004;76;22546;-61
2021/06/15 04:37:33;;;;;;;11.22;9.48;;;;;;;20.67;84.50;98942.92;1870524;76;22140;-63
2021/06/15 04:40:23;;;;;;;10.40;9.30;;;;;;;20.77;84.13;98943.05;1870526;76;22167;-63
2021/06/15 04:43:12;;;;;;;17.35;10.32;;;;;;;20.89;83.80;98943.55;1870616;76;22149;-60
2021/06/15 09:00:57;;;;;;;5.72;2.67;;;;;;;34.89;32.40;98928.45;1853441;77;22096;-63
2021/06/15 09:03:33;;;;;;;3.08;2.10;;;;;;;34.56;32.04;98925.61;1870615;76;22062;-62
2021/06/15 09:06:08;;;;;;;6.53;2.60;;;;;;;34.43;32.74;98929.87;1854877;76;27896;-63
2021/06/15 09:08:53;;;;;;;5.45;2.75;;;;;;;34.44;32.14;98920.83;1854801;76;27912;-64
2021/06/15 09:11:51;;;;;;;9.40;3.58;;;;;;;34.16;32.78;98935.81;1874019;76;29863;-64
2021/06/15 09:14:46;;;;;;;4.78;2.70;;;;;;;33.91;34.40;98919.16;1890145;76;22511;-63
2021/06/15 09:17:35;;;;;;;4.72;2.70;;;;;;;33.35;34.28;98921.30;1861147;77;21126;-62
2021/06/15 09:20:21;;;;;;;8.13;3.30;;;;;;;32.79;34.76;98920.98;1870583;76;22456;-62
2021/06/15 09:23:04;;;;;;;6.75;3.02;;;;;;;32.50;35.66;98918.02;1870666;76;20098;-62
2021/06/15 09:25:39;;;;;;;6.15;3.10;;;;;;;32.02;36.44;98910.23;1870565;76;22063;-63
2021/06/15 09:28:22;;;;;;;5.45;3.60;;;;;;;31.35;37.88;98905.91;1889891;76;22247;-63
2021/06/15 09:31:07;;;;;;;6.75;3.10;;;;;;;30.81;38.72;98910.37;1870737;76;22082;-64
2021/06/15 09:33:48;;;;;;;6.87;3.50;;;;;;;30.17;38.85;98905.64;1870723;76;22635;-61
2021/06/15 09:36:28;;;;;;;5.70;3.50;;;;;;;29.65;40.48;98896.83;1889915;76;22050;-63
2021/06/15 09:39:17;;;;;;;5.22;3.25;;;;;;;29.21;41.10;98898.86;1861269;77;21134;-63
2021/06/15 09:41:51;;;;;;;5.05;3.17;;;;;;;28.92;41.89;98891.92;1870595;76;22611;-62
2021/06/15 09:44:30;;;;;;;4.78;3.40;;;;;;;28.77;42.35;98890.63;1889872;76;22188;-62
2021/06/15 09:47:08;;;;;;;4.42;2.92;;;;;;;28.69;42.31;98891.61;1870556;76;22737;-63
2021/06/15 09:49:45;;;;;;;4.20;3.08;;;;;;;28.61;42.29;98880.64;1889950;76;22246;-63
2021/06/15 09:52:33;;;;;;;6.45;3.42;;;;;;;28.37;42.28;98873.75;1791712;80;21146;-64
2021/06/15 09:55:09;;;;;;;10.95;3.60;;;;;;;28.08;43.41;98876.90;1870393;76;22140;-64
2021/06/15 09:57:51;;;;;;;6.25;3.05;;;;;;;27.93;43.44;98868.09;1889881;76;22315;-63
2021/06/15 10:00:39;;;;;;;5.60;3.17;;;;;;;27.82;41.15;98870.56;1791434;80;21110;-64
2021/06/15 10:03:16;;;;;;;5.15;3.17;;;;;;;27.87;43.37;98877.28;1870585;76;22566;-65
2021/06/15 10:06:15;;;;;;;7.60;4.00;;;;;;;27.97;43.58;98865.64;1868730;75;22598;-63
2021/06/15 10:08:50;;;;;;;8.45;3.65;;;;;;;27.97;43.83;98866.13;1870562;76;22149;-61
2021/06/15 10:11:24;;;;;;;7.47;3.37;;;;;;;28.13;44.22;98870.35;1889899;76;22144;-62
2021/06/15 10:14:03;;;;;;;8.30;3.30;;;;;;;28.38;44.01;98866.64;1870575;76;22181;-62
2021/06/15 10:16:38;;;;;;;5.55;3.30;;;;;;;28.55;42.13;98871.28;1870660;76;22152;-63
2021/06/15 10:19:13;;;;;;;6.83;4.08;;;;;;;28.60;42.37;98868.33;1870704;76;22113;-62
2021/06/15 10:21:49;;;;;;;6.20;3.40;;;;;;;28.60;42.89;98867.45;1854731;76;27886;-63
2021/06/15 10:24:26;;;;;;;5.15;3.58;;;;;;;28.66;42.91;98857.30;1870565;76;20351;-63
2021/06/15 10:27:05;;;;;;;7.22;3.35;;;;;;;28.55;42.29;98857.16;1870538;76;22157;-63
2021/06/15 10:29:42;;;;;;;4.80;3.15;;;;;;;28.43;42.19;98853.44;1889839;76;22155;-63
2021/06/15 10:32:23;;;;;;;6.30;3.08;;;;;;;28.46;42.77;98860.39;1870321;76;22160;-64
2021/06/15 10:35:12;;;;;;;6.97;3.75;;;;;;;28.58;42.35;98858.28;1870399;76;22168;-62
2021/06/15 10:37:45;;;;;;;11.57;3.80;;;;;;;28.65;42.86;98852.95;1870562;76;22139;-63
2021/06/15 10:40:29;;;;;;;6.10;3.65;;;;;;;28.64;43.42;98861.00;1889894;76;22176;-63
2021/06/15 10:43:26;;;;;;;5.72;3.60;;;;;;;28.50;43.39;98855.27;1861105;77;21271;-64
2021/06/15 10:46:07;;;;;;;9.10;3.72;;;;;;;28.60;43.19;98851.07;1870607;76;22147;-63
2021/06/15 10:48:48;;;;;;;5.62;3.30;;;;;;;28.72;41.91;98850.72;1870599;76;22190;-62
2021/06/15 10:51:37;;;;;;;7.60;3.33;;;;;;;28.73;41.73;98849.80;1870593;76;22547;-62
2021/06/15 10:54:40;;;;;;;5.58;3.62;;;;;;;28.85;42.22;98850.77;1889924;76;20203;-62
2021/06/15 10:57:29;;;;;;;4.80;3.10;;;;;;;29.11;42.22;98849.94;1870664;76;22156;-62
2021/06/15 11:00:12;;;;;;;5.42;2.90;;;;;;;29.17;42.16;98845.52;1870541;76;22140;-63
2021/06/15 11:03:23;;;;;;;6.60;3.25;;;;;;;29.21;41.61;98847.03;1889921;76;22167;-63
2021/06/15 11:06:02;;;;;;;4.90;3.30;;;;;;;29.29;41.25;98840.35;1870603;76;22120;-63
2021/06/15 11:08:37;;;;;;;4.53;3.00;;;;;;;29.28;40.35;98827.99;1889928;76;22545;-64
2021/06/15 11:11:21;;;;;;;6.85;3.20;;;;;;;29.25;40.59;98834.37;1873896;76;27903;-64
2021/06/15 11:14:12;;;;;;;6.62;3.22;;;;;;;29.34;40.79;98825.78;1870427;76;22164;-63
2021/06/15 11:16:51;;;;;;;11.25;3.25;;;;;;;29.40;40.06;98827.16;1889833;76;22132;-63
2021/06/15 11:19:39;;;;;;;6.15;2.87;;;;;;;29.50;40.21;98821.58;1861241;77;21271;-63
2021/06/15 11:22:20;;;;;;;5.30;3.22;;;;;;;29.69;40.84;98801.22;1889904;76;22550;-62
2021/06/15 11:25:00;;;;;;;4.25;3.00;;;;;;;29.81;40.98;98803.50;1870604;76;22137;-64
2021/06/15 11:27:37;;;;;;;5.42;2.67;;;;;;;29.96;39.81;98795.77;1889990;76;22250;-62
2021/06/15 11:30:25;;;;;;;7.40;3.45;;;;;;;29.84;39.01;98788.65;1861224;77;21267;-63
2021/06/15 11:33:05;;;;;;;6.80;2.85;;;;;;;29.82;39.33;98786.60;1870535;76;22165;-61
2021/06/15 11:35:41;;;;;;;4.45;2.83;;;;;;;29.82;40.26;98785.27;1870634;76;22137;-60
2021/06/15 11:38:27;;;;;;;4.00;2.87;;;;;;;29.83;38.97;98780.31;1760521;81;21121;-64
2021/06/15 11:41:02;;;;;;;4.23;2.63;;;;;;;30.03;39.58;98786.38;1873962;76;27912;-63
2021/06/15 11:43:38;;;;;;;4.47;2.90;;;;;;;30.11;39.19;98790.30;1834941;77;20104;-62
2021/06/15 11:46:13;;;;;;;6.28;2.80;;;;;;;30.21;38.37;98771.38;1870604;76;22311;-63
2021/06/15 11:48:53;;;;;;;5.83;3.30;;;;;;;30.20;38.39;98773.19;1870816;76;22137;-62
2021/06/15 11:51:29;;;;;;;5.05;3.35;;;;;;;30.03;38.93;98775.73;1870402;76;22189;-62
2021/06/15 11:54:14;;;;;;;7.53;4.10;;;;;;;29.80;40.80;98777.39;1760282;81;21106;-64
2021/06/15 11:56:49;;;;;;;6.28;3.65;;;;;;;29.50;43.16;98763.08;1889893;76;22144;-64
2021/06/15 11:59:25;;;;;;;7.15;3.90;;;;;;;29.20;44.53;98765.58;1854553;76;28350;-62
2021/06/15 12:02:02;;;;;;;5.95;3.50;;;;;;;28.99;44.92;98776.33;1870731;76;22164;-64
2021/06/15 12:04:37;;;;;;;5.35;3.37;;;;;;;28.81;44.81;98758.98;1870643;76;22190;-63
2021/06/15 12:07:17;;;;;;;6.47;3.60;;;;;;;28.74;45.28;98762.03;1889898;76;22586;-62
2021/06/15 12:10:13;;;;;;;6.45;3.75;;;;;;;28.85;45.09;98756.47;1870638;76;22141;-63
2021/06/15 12:13:09;;;;;;;9.75;4.08;;;;;;;28.91;44.96;98758.73;1870481;76;22550;-64
2021/06/15 12:18:58;;;;;;;5.37;3.50;;;;;;;28.85;44.77;98744.06;1870348;76;22180;-60
2021/06/15 12:21:45;;;;;;;7.37;4.08;;;;;;;28.76;44.84;98730.91;1827728;78;21276;-62
2021/06/15 12:24:20;;;;;;;5.78;4.03;;;;;;;28.78;44.75;98728.16;1870525;76;22574;-61
2021/06/15 12:26:58;;;;;;;5.55;3.77;;;;;;;28.77;45.19;98720.65;1870390;76;22165;-62
2021/06/15 12:29:32;;;;;;;6.12;3.15;;;;;;;28.92;44.93;98724.55;1870577;76;22141;-62
2021/06/15 12:32:07;;;;;;;5.47;2.98;;;;;;;28.97;42.34;98716.64;1870527;76;22128;-62
2021/06/15 12:34:43;;;;;;;5.53;3.05;;;;;;;28.89;42.33;98721.63;1854579;76;27872;-62
2021/06/15 12:37:17;;;;;;;6.15;3.67;;;;;;;28.93;42.28;98715.65;1870628;76;22141;-63
2021/06/15 12:39:53;;;;;;;8.15;2.98;;;;;;;28.90;42.48;98719.81;1870514;76;22164;-63
2021/06/15 12:42:39;;;;;;;5.87;2.92;;;;;;;28.76;42.67;98724.27;1827616;77;21154;-66
2021/06/15 12:45:15;;;;;;;5.22;2.85;;;;;;;28.73;42.77;98709.03;1854618;76;27888;-63
2021/06/15 12:47:49;;;;;;;6.55;3.72;;;;;;;28.77;42.80;98712.68;1870717;76;22145;-63
2021/06/15 12:50:26;;;;;;;6.37;2.85;;;;;;;28.81;43.37;98695.23;1854508;76;28334;-64
2021/06/15 12:53:05;;;;;;;6.45;3.37;;;;;;;28.75;43.97;98705.32;1870609;76;22144;-63
2021/06/15 12:55:43;;;;;;;5.92;3.40;;;;;;;28.77;44.25;98704.71;1870652;76;22160;-63
2021/06/15 12:58:27;;;;;;;5.03;3.15;;;;;;;28.69;43.95;98701.73;1834881;77;22184;-64
2021/06/15 13:01:36;;;;;;;4.85;3.00;;;;;;;28.49;43.99;98696.44;1870304;76;22189;-64
2021/06/15 13:04:38;;;;;;;6.15;2.90;;;;;;;28.36;44.01;98709.64;1870585;76;22164;-63
2021/06/15 13:07:21;;;;;;;7.37;2.50;;;;;;;28.41;43.49;98705.84;1889889;76;22585;-62
2021/06/15 13:09:57;;;;;;;4.20;2.62;;;;;;;28.42;43.11;98705.75;1870437;76;22164;-62
2021/06/15 13:12:33;;;;;;;6.97;2.80;;;;;;;28.41;43.22;98711.15;1870603;76;22136;-63
2021/06/15 13:15:12;;;;;;;7.30;3.05;;;;;;;28.45;43.54;98705.58;1889914;76;22139;-64
2021/06/15 13:18:02;;;;;;;3.37;2.40;;;;;;;28.48;42.55;98699.20;1832703;77;21154;-66
2021/06/15 13:20:39;;;;;;;4.62;2.80;;;;;;;28.51;42.29;98703.83;1870386;76;22168;-63
2021/06/15 13:23:19;;;;;;;5.70;2.67;;;;;;;28.35;43.00;98706.63;1870645;76;22209;-62
2021/06/15 13:25:54;;;;;;;5.47;2.37;;;;;;;28.27;42.78;98704.95;1889917;76;22167;-64
2021/06/15 13:28:28;;;;;;;5.45;2.50;;;;;;;28.18;42.10;98713.99;1870582;76;22137;-63
2021/06/15 13:31:03;;;;;;;4.17;2.45;;;;;;;28.08;42.59;98704.45;1870567;76;22121;-62
2021/06/15 13:33:38;;;;;;;5.95;2.67;;;;;;;28.01;42.96;98702.69;1889891;76;22132;-64
2021/06/15 13:36:23;;;;;;;3.92;2.45;;;;;;;27.89;43.36;98700.34;1791722;80;21134;-62
2021/06/15 13:39:18;;;;;;;4.93;2.67;;;;;;;27.92;43.19;98689.53;1854832;76;27894;-62
2021/06/15 13:41:58;;;;;;;5.50;2.08;;;;;;;27.89;43.44;98691.06;1870566;76;22145;-62
2021/06/15 13:44:34;;;;;;;4.05;2.47;;;;;;;27.90;43.74;98692.75;1870460;76;22164;-63
2021/06/15 13:47:21;;;;;;;5.87;2.80;;;;;;;27.84;43.70;98689.18;1760350;81;21292;-63
2021/06/15 13:49:57;;;;;;;10.18;2.62;;;;;;;27.88;43.97;98695.97;1870404;76;22164;-61
2021/06/15 13:52:32;;;;;;;4.05;2.45;;;;;;;27.84;44.15;98690.51;1890009;76;22202;-61
2021/06/15 13:55:09;;;;;;;6.60;2.90;;;;;;;27.77;44.25;98682.53;1873900;76;27912;-62
2021/06/15 13:57:44;;;;;;;6.03;2.20;;;;;;;27.77;44.09;98689.16;1870726;76;22149;-62
2021/06/15 14:00:21;;;;;;;5.65;2.90;;;;;;;27.70;43.93;98695.80;1870478;76;23184;-62
2021/06/15 14:02:56;;;;;;;5.00;2.70;;;;;;;27.60;44.26;98705.28;1873670;76;28410;-63
2021/06/15 14:05:31;;;;;;;4.70;2.70;;;;;;;27.54;44.56;98714.96;1889815;76;22180;-65
2021/06/15 14:08:17;;;;;;;8.08;2.90;;;;;;;27.32;45.02;98714.95;1791352;80;21592;-62
2021/06/15 14:10:52;;;;;;;6.92;2.85;;;;;;;27.24;45.67;98702.66;1869316;76;22145;-63
2021/06/15 14:13:27;;;;;;;6.72;3.20;;;;;;;27.16;46.06;98699.59;1869491;76;22144;-62
2021/06/15 14:16:01;;;;;;;5.25;3.33;;;;;;;27.05;46.31;98695.81;1889945;76;22141;-62
2021/06/15 14:18:37;;;;;;;6.35;2.40;;;;;;;26.97;46.48;98699.84;1870544;76;22140;-63
2021/06/15 14:21:23;;;;;;;6.00;2.87;;;;;;;26.86;46.26;98704.48;1827746;78;21166;-63
2021/06/15 14:23:58;;;;;;;6.40;3.22;;;;;;;26.90;46.59;98702.03;1870663;76;22153;-64
2021/06/15 14:26:34;;;;;;;6.40;3.25;;;;;;;26.91;46.49;98698.43;1890021;76;22179;-61
2021/06/15 14:29:09;;;;;;;5.00;3.00;;;;;;;26.88;45.78;98718.48;1870594;76;22198;-62
2021/06/15 14:31:44;;;;;;;4.37;2.55;;;;;;;26.71;45.06;98712.01;1870566;76;22169;-64
2021/06/15 14:34:22;;;;;;;4.72;2.52;;;;;;;26.57;45.23;98709.71;1870558;76;22152;-62
2021/06/15 14:36:56;;;;;;;4.05;2.22;;;;;;;26.50;45.22;98714.94;1870634;76;22148;-63
2021/06/15 14:39:32;;;;;;;6.65;2.87;;;;;;;26.39;44.14;98701.50;1889922;76;22549;-65
2021/06/15 14:42:08;;;;;;;7.67;2.62;;;;;;;26.27;44.08;98707.49;1870640;76;22571;-63
2021/06/15 14:44:42;;;;;;;7.42;2.75;;;;;;;26.19;44.43;98707.45;1889895;76;22119;-63
2021/06/15 14:47:17;;;;;;;5.80;2.75;;;;;;;26.23;44.91;98707.27;1870731;76;22121;-64
2021/06/15 14:49:52;;;;;;;4.65;2.42;;;;;;;26.26;44.46;98700.52;1889897;76;22545;-64
2021/06/15 14:52:26;;;;;;;4.50;2.67;;;;;;;26.29;44.44;98701.17;1870641;76;22247;-63
2021/06/15 14:55:01;;;;;;;5.35;2.62;;;;;;;26.34;43.60;98700.91;1870666;76;22121;-63
2021/06/15 14:57:45;;;;;;;6.17;2.72;;;;;;;26.30;43.77;98698.05;1890092;76;22187;-63
2021/06/15 15:00:32;;;;;;;5.03;2.52;;;;;;;26.24;44.15;98709.00;1791703;80;21172;-61
2021/06/15 15:03:07;;;;;;;4.35;2.27;;;;;;;26.20;43.54;98707.86;1870633;76;22586;-64
2021/06/15 15:05:42;;;;;;;4.33;2.37;;;;;;;26.14;43.72;98718.77;1873861;76;27905;-64
2021/06/15 15:08:17;;;;;;;6.45;2.45;;;;;;;26.22;43.76;98718.80;1870630;76;22152;-61
2021/06/15 15:10:51;;;;;;;3.92;2.30;;;;;;;26.26;43.66;98712.41;1870441;76;22129;-63
2021/06/15 15:13:32;;;;;;;4.17;2.17;;;;;;;26.32;42.87;98708.92;1869787;76;22140;-63
2021/06/15 15:16:13;;;;;;;4.55;2.52;;;;;;;26.24;43.67;98708.52;1867916;76;22583;-63
2021/06/15 15:18:53;;;;;;;3.75;2.17;;;;;;;26.24;44.19;98719.58;1855536;76;22159;-63
2021/06/15 15:21:31;;;;;;;5.17;2.70;;;;;;;26.26;44.79;98708.45;1862353;76;22196;-62
2021/06/15 15:24:08;;;;;;;3.50;2.72;;;;;;;26.28;45.20;98717.12;1846512;76;22606;-62
2021/06/15 15:26:46;;;;;;;6.30;2.80;;;;;;;26.21;45.25;98716.64;1868171;76;22171;-63
2021/06/15 15:29:34;;;;;;;6.53;2.55;;;;;;;26.07;45.73;98724.02;1808407;78;22202;-64
2021/06/15 15:32:09;;;;;;;5.12;3.08;;;;;;;26.05;46.20;98727.20;1861848;76;22182;-61
2021/06/15 15:34:44;;;;;;;4.87;2.50;;;;;;;25.98;46.38;98726.72;1864618;76;22191;-62
2021/06/15 15:37:19;;;;;;;5.03;2.35;;;;;;;25.91;46.56;98731.11;1836293;76;28404;-60
2021/06/15 15:40:07;;;;;;;4.47;2.50;;;;;;;25.82;46.31;98739.03;1803938;78;21255;-61
2021/06/15 15:42:48;;;;;;;4.30;2.50;;;;;;;25.80;46.56;98734.33;1849135;76;22253;-62
2021/06/15 15:45:24;;;;;;;5.15;2.30;;;;;;;25.74;46.87;98730.68;1863880;76;22233;-63
2021/06/15 15:48:11;;;;;;;3.55;2.30;;;;;;;25.61;46.41;98725.21;1830689;78;21223;-64
2021/06/15 15:50:52;;;;;;;3.05;1.87;;;;;;;25.62;46.83;98720.77;1866241;76;22673;-62
2021/06/15 15:53:27;;;;;;;4.90;2.05;;;;;;;25.56;44.66;98718.00;1864940;76;22176;-64
2021/06/15 15:56:09;;;;;;;4.47;2.20;;;;;;;25.42;45.53;98713.95;1855081;76;22288;-62
2021/06/15 15:58:54;;;;;;;7.80;3.20;;;;;;;25.28;46.68;98723.44;1746408;80;21781;-63
2021/06/15 16:01:30;;;;;;;4.70;2.60;;;;;;;25.27;47.29;98720.42;1846616;76;22597;-63
2021/06/15 16:04:05;;;;;;;3.80;2.50;;;;;;;25.28;47.75;98714.67;1861679;76;20207;-63
2021/06/15 16:06:46;;;;;;;4.40;2.75;;;;;;;25.25;48.34;98705.13;1851334;76;22615;-62
2021/06/15 16:09:33;;;;;;;4.12;2.62;;;;;;;25.13;48.71;98700.45;1812964;77;21552;-64
2021/06/15 16:12:09;;;;;;;5.45;2.50;;;;;;;24.99;49.11;98698.55;1851872;76;22179;-63
2021/06/15 16:14:43;;;;;;;3.95;2.58;;;;;;;24.82;49.52;98700.73;1853209;76;22634;-63
2021/06/15 16:17:31;;;;;;;4.42;2.55;;;;;;;24.67;49.52;98698.88;1813335;78;21572;-64
2021/06/15 16:20:08;;;;;;;6.10;2.90;;;;;;;24.62;50.38;98692.98;1834808;76;38337;-62
2021/06/15 16:22:44;;;;;;;5.28;2.75;;;;;;;24.62;50.60;98686.38;1851553;76;22175;-64
2021/06/15 16:25:19;;;;;;;5.85;2.80;;;;;;;24.60;51.00;98689.56;1845317;76;22190;-62
2021/06/15 16:28:00;;;;;;;4.12;2.70;;;;;;;24.56;51.69;98686.71;1850947;76;22180;-63
2021/06/15 16:30:46;;;;;;;5.72;3.10;;;;;;;24.44;52.28;98678.91;1814212;77;21130;-61
2021/06/15 16:33:21;;;;;;;4.30;2.72;;;;;;;24.42;53.42;98668.41;1851644;76;22147;-64
2021/06/15 16:35:56;;;;;;;5.75;3.65;;;;;;;24.37;53.89;98675.70;1868119;76;22162;-65
2021/06/15 16:38:31;;;;;;;6.70;3.25;;;;;;;24.33;54.48;98676.81;1863208;76;22152;-63
2021/06/15 16:41:06;;;;;;;5.70;3.57;;;;;;;24.32;54.74;98680.83;1839369;76;28064;-63
2021/06/15 16:43:54;;;;;;;6.03;3.15;;;;;;;24.30;54.79;98676.97;1825645;78;21512;-63
2021/06/15 16:46:35;;;;;;;7.95;3.40;;;;;;;24.38;54.92;98680.55;1861912;76;22129;-61
2021/06/15 16:49:10;;;;;;;4.90;3.05;;;;;;;24.41;54.99;98679.91;1875165;76;22649;-64
2021/06/15 16:52:06;;;;;;;5.05;3.12;;;;;;;24.38;54.76;98685.34;1880308;75;22204;-62
2021/06/15 16:54:46;;;;;;;4.78;2.92;;;;;;;24.31;54.96;98679.98;1836541;76;22199;-63